GCTS Airport Information

Runway Information
Runway 07 Length 10499 ft width 148 ft
Elevation 188 ft Threshold ft Heading 69
Runway 25 Length 10499 ft Width 148 ft
Elevation 209 ft Threshold ft Heading 249
Airport Frequencies
Type APP Name APP Frequency 120.3 MHZ
Type ATIS Name ATIS Frequency 118.675 MHZ
Type GND Name GND Frequency 121.9 MHZ
Type TWR Name TWR Frequency 119 MHZ
Airport Navaids
Type NDB Name Tenerife Sur Frequency 317 KHZ
Type VOR-DME Name Tenerife Sur Frequency 116400 KHZ
Airport Weather Information & NOTAM
ADDS - METARS form results

(2356 UTC 18 August 2022)
Data provider http://aviationweather.gov/metar/data/
 
METAR text: GCTS 182330Z 07008KT 9999 FEW035 22/16 Q1015 NOSIG
Conditions at: GCTS (TENERIFE SUR/REI, ES) observed 2330 UTC 18 August 2022
Temperature: 22.0°C (72°F)
Dewpoint: 16.0°C (61°F) [RH = 69%]
Pressure (altimeter): 29.97 inches Hg (1015.0 mb)
Winds: from the ENE (70 degrees) at 9 MPH (8 knots; 4.1 m/s)
Visibility: 6 or more miles (10+ km)
Ceiling: at least 12,000 feet AGL
Clouds: few clouds at 3500 feet AGL
Weather: no significant weather observed at this time

METAR text: GCTS 182300Z 07009KT 9999 FEW035 22/16 Q1015 NOSIG
Conditions at: GCTS (TENERIFE SUR/REI, ES) observed 2300 UTC 18 August 2022
Temperature: 22.0°C (72°F)
Dewpoint: 16.0°C (61°F) [RH = 69%]
Pressure (altimeter): 29.97 inches Hg (1015.0 mb)
Winds: from the ENE (70 degrees) at 10 MPH (9 knots; 4.6 m/s)
Visibility: 6 or more miles (10+ km)
Ceiling: at least 12,000 feet AGL
Clouds: few clouds at 3500 feet AGL
Weather: no significant weather observed at this time

Forecast for: GCTS (TENERIFE SUR/REI, ES)
Text: TAF GCTS 182000Z 1821/1921 07012KT 9999 SCT035 TX29/1914Z TN22/1906Z
Forecast period: 2100 UTC 18 August 2022 to 0000 UTC 19 August 2022
Forecast type: FROM: standard forecast or significant change
Winds: from the ENE (70 degrees) at 14 MPH (12 knots; 6.2 m/s)
Visibility: 6 or more miles (10+ km)
Ceiling: at least 12,000 feet AGL
Clouds: scattered clouds at 3500 feet AGL
Weather: no significant weather forecast for this period
Text: BECMG 1900/1902 01008KT
Forecast period: 0000 to 0900 UTC 19 August 2022
Forecast type: BECOMING: Conditions expected to become as follows by 0200 UTC 19 August 2022
Winds: from the N (10 degrees) at 9 MPH (8 knots; 4.1 m/s)
Visibility: 6 or more miles (10+ km)
Ceiling: at least 12,000 feet AGL
Clouds: scattered clouds at 3500 feet AGL
Weather: no significant weather forecast for this period
Text: BECMG 1909/1911 08017KT
Forecast period: 0900 to 2100 UTC 19 August 2022
Forecast type: BECOMING: Conditions expected to become as follows by 1100 UTC 19 August 2022
Winds: from the E (80 degrees) at 20 MPH (17 knots; 8.7 m/s)
Visibility: 6 or more miles (10+ km)
Ceiling: at least 12,000 feet AGL
Clouds: scattered clouds at 3500 feet AGL
Weather: no significant weather forecast for this period